Oak Grove (212) Station Data

Red Flag Warning: No
Fire Weather Zone: 258
SDGE Region: Ramona
Lat/Lon: 33.392/-116.788

Observations

Time Wind Speed/Gust Temp(F) RH Fuel Moist Fuel Temp(F) Dewpt(F) Tmax(F) Tmin(F) Accum Precip 10-min Precip SL Press(mb)
2/27 11:40pm 278 4 G 8 45° 93% - - 43° 52.2° 32.6° - - -
2/27 11:20pm 310 6 G 11 45° 96% - - 44° 52.2° 32.6° - - -
2/27 11:10pm 266 6 G 8 45° 95% - - 44° 52.2° 32.6° - - -
2/27 11:00pm 251 5 G 7 46° 94% - - 44° 52.2° 32.6° - - -
2/27 10:50pm 303 5 G 8 46° 92% - - 44° 52.2° 32.6° - - -
2/27 10:40pm 333 8 G 13 46° 94% - - 44° 52.2° 32.6° - - -
2/27 10:30pm 328 9 G 13 46° 97% - - 45° 52.2° 32.6° - - -
2/27 10:20pm 320 10 G 16 46° 97% - - 45° 52.2° 32.6° - - -
2/27 10:10pm 300 5 G 14 46° 97% - - 45° 52.2° 32.6° - - -
2/27 10:00pm 244 2 G 3 46° 97% - - 45° 52.2° 32.6° - - -
2/27 9:50pm 226 3 G 4 46° 96% - - 45° 52.2° 32.6° - - -
2/27 9:40pm 292 4 G 5 46° 96% - - 45° 52.2° 32.6° - - -
2/27 9:30pm 285 3 G 5 46° 94% - - 45° 52.2° 32.6° - - -
2/27 9:20pm 119 3 G 5 46° 94% - - 45° 52.2° 32.6° - - -
2/27 9:10pm 187 3 G 5 47° 93% - - 45° 52.2° 32.6° - - -
2/27 9:00pm 209 2 G 5 47° 94% - - 45° 52.2° 32.6° - - -
2/27 8:50pm 196 1 G 3 46° 95% - - 45° 52.2° 32.6° - - -
2/27 8:40pm 315 3 G 8 46° 97% - - 45° 52.2° 32.6° - - -
2/27 8:30pm 244 1 G 5 46° 97% - - 45° 52.2° 32.6° - - -
2/27 8:20pm 236 2 G 3 46° 97% - - 45° 52.2° 32.6° - - -
2/27 8:10pm 322 1 G 2 46° 96% - - 45° 52.2° 32.6° - - -
2/27 8:00pm 270 3 G 6 46° 96% - - 45° 52.2° 32.6° - - -
2/27 7:50pm 263 5 G 7 47° 95% - - 45° 52.2° 32.6° - - -
2/27 7:40pm 248 3 G 6 47° 93% - - 45° 52.2° 32.6° - - -
2/27 7:30pm 326 4 G 7 48° 89% - - 44° 52.2° 32.6° - - -
2/27 7:20pm 68 3 G 9 48° 89% - - 45° 52.2° 32.6° - - -
2/27 7:10pm 349 5 G 7 47° 91% - - 45° 52.2° 32.6° - - -
2/27 7:00pm 346 5 G 7 47° 90% - - 45° 52.2° 32.6° - - -
2/27 6:50pm 42 6 G 10 49° 84% - - 44° 52.2° 32.6° - - -
2/27 6:40pm 45 3 G 8 49° 83% - - 44° 52.2° 32.6° - - -
2/27 6:30pm 247 4 G 9 49° 81% - - 43° 52.2° 32.6° - - -
2/27 6:20pm 207 8 G 26 49° 82% - - 44° 52.2° 32.6° - - -
2/27 6:10pm 37 4 G 9 47° 96% - - 46° 52.2° 32.6° - - -
2/27 6:00pm 288 5 G 10 47° 95% - - 46° 52.2° 32.6° - - -
2/27 5:50pm 13 5 G 9 48° 92% - - 45° 52.2° 32.6° - - -
2/27 5:40pm 49 6 G 7 48° 91% - - 45° 52.2° 32.6° - - -
2/27 5:30pm 72 4 G 6 48° 90% - - 45° 52.2° 32.6° - - -
2/27 5:20pm 90 6 G 8 48° 86% - - 45° 52.2° 32.6° - - -
2/27 5:10pm 78 8 G 14 49° 83% - - 44° 52.2° 32.6° - - -
2/27 5:00pm 40 10 G 16 49° 85% - - 45° 52.2° 32.6° - - -
2/27 4:50pm 64 5 G 9 49° 82% - - 44° 52.2° 32.6° - - -
2/27 4:40pm 66 6 G 11 49° 82% - - 44° 52.2° 32.6° - - -
2/27 4:30pm 39 9 G 14 49° 84% - - 44° 52.2° 32.6° - - -
2/27 4:20pm 275 5 G 10 49° 82% - - 44° 52.2° 32.6° - - -
2/27 4:10pm 197 5 G 13 50° 79% - - 43° 52.2° 32.6° - - -
2/27 4:00pm 266 4 G 10 49° 81% - - 44° 52.2° 32.6° - - -
2/27 3:50pm 225 3 G 12 50° 79% - - 44° 52.2° 32.6° - - -
2/27 3:40pm 162 6 G 12 50° 78% - - 44° 52.2° 32.6° - - -
2/27 3:30pm 191 5 G 18 50° 77% - - 44° 52.2° 32.6° - - -
2/27 3:20pm 222 8 G 16 50° 78% - - 44° 52.2° 32.6° - - -
2/27 3:10pm 224 9 G 21 51° 76% - - 44° 52.2° 32.6° - - -
2/27 3:00pm 209 8 G 17 51° 75% - - 44° 52.2° 32.6° - - -
2/27 2:50pm 195 11 G 35 51° 75% - - 44° 52.2° 32.6° - - -
2/27 2:40pm 186 11 G 23 51° 77% - - 44° 52.2° 32.6° - - -
2/27 2:30pm 217 9 G 23 51° 77% - - 44° 52.2° 32.6° - - -
2/27 2:20pm 218 4 G 14 50° 91% - - 47° 52.2° 32.6° - - -
2/27 2:10pm 251 4 G 8 50° 89% - - 47° 52.2° 32.6° - - -
2/27 2:00pm 218 8 G 16 51° 82% - - 46° 52.2° 32.6° - - -
2/27 1:50pm 145 4 G 10 51° 87% - - 47° 52.2° 32.6° - - -
2/27 1:40pm 79 7 G 11 50° 89% - - 47° 52.2° 32.6° - - -
2/27 1:30pm 94 8 G 11 50° 88% - - 47° 52.2° 32.6° - - -
2/27 1:20pm 69 6 G 12 50° 89% - - 47° 52.2° 32.6° - - -
2/27 1:10pm 67 8 G 14 50° 88% - - 47° 52.2° 32.6° - - -
2/27 1:00pm 61 11 G 16 50° 87% - - 46° 52.2° 32.6° - - -
2/27 12:50pm 66 8 G 14 50° 87% - - 46° 52.2° 32.6° - - -
2/27 12:40pm 78 9 G 12 50° 89% - - 46° 52.2° 32.6° - - -
2/27 12:30pm 27 8 G 13 49° 90% - - 47° 52.2° 32.6° - - -
2/27 12:20pm 252 3 G 8 49° 91% - - 47° 52.2° 32.6° - - -
2/27 12:10pm 223 2 G 6 49° 93% - - 47° 52.2° 32.6° - - -
2/27 12:00pm 220 2 G 5 50° 88% - - 47° 52.2° 32.6° - - -
2/27 11:50am 75 4 G 6 51° 82% - - 45° 52.2° 32.6° - - -
2/27 11:40am 41 2 G 5 51° 80% - - 45° 52.2° 32.6° - - -
2/27 11:30am 9 3 G 7 51° 78% - - 44° 52.2° 32.6° - - -
2/27 11:20am 187 5 G 15 51° 74% - - 44° 52.2° 32.6° - - -
2/27 11:10am 188 7 G 17 51° 78% - - 45° 52.2° 32.6° - - -
2/27 11:00am 164 6 G 14 49° 95% - - 48° 50.9° 32.6° - - -
2/27 10:50am 217 3 G 11 49° 98% - - 48° 49° 32.6° - - -
2/27 10:40am 157 1 G 3 48° 98% - - 48° 48.9° 32.6° - - -
2/27 10:30am 176 2 G 4 48° 98% - - 48° 48.8° 32.6° - - -
2/27 10:20am 332 2 G 4 48° 98% - - 48° 48.7° 32.6° - - -
2/27 10:10am 326 2 G 4 48° 98% - - 48° 48.6° 32.6° - - -
2/27 10:00am 46 2 G 3 48° 99% - - 47° 48.6° 32.6° - - -
2/27 9:50am 144 2 G 4 48° 99% - - 47° 48.1° 32.6° - - -
2/27 9:40am 65 1 G 3 47° 99% - - 47° 47.9° 32.6° - - -
2/27 9:30am 335 1 G 3 47° 99% - - 47° 47.7° 32.6° - - -
2/27 9:20am 116 2 G 4 46° 99% - - 46° 47.1° 32.6° - - -
2/27 9:10am 147 2 G 4 46° 99% - - 46° 46.7° 32.6° - - -
2/27 9:00am 208 1 G 4 46° 99% - - 46° 46.7° 32.6° - - -
2/27 8:50am 284 2 G 4 46° 99% - - 46° 46.7° 32.6° - - -
2/27 8:40am 301 2 G 4 45° 99% - - 45° 45.9° 32.6° - - -
2/27 8:30am 254 3 G 5 45° 98% - - 44° 45.4° 32.6° - - -
2/27 8:20am 182 2 G 5 45° 98% - - 44° 45.3° 32.6° - - -
2/27 8:10am 271 3 G 6 45° 98% - - 44° 45.3° 32.6° - - -
2/27 8:00am 280 4 G 6 44° 99% - - 44° 45° 32.6° - - -
2/27 7:50am 280 4 G 7 44° 98% - - 44° 44.7° 32.6° - - -
2/27 7:40am 290 5 G 8 44° 99% - - 43° 44.5° 32.6° - - -
2/27 7:30am 206 3 G 8 43° 98% - - 43° 44.3° 32.6° - - -
2/27 7:20am 290 3 G 6 43° 99% - - 43° 44.3° 32.6° - - -
2/27 7:10am 230 2 G 5 42° 98% - - 42° 42.7° 32.6° - - -
2/27 7:00am 265 3 G 6 42° 98% - - 41° 42.3° 32.6° - - -
2/27 6:50am 287 3 G 5 41° 98% - - 40° 41.7° 32.6° - - -
2/27 6:40am 268 2 G 4 41° 98% - - 41° 41.7° 32.6° - - -
2/27 6:30am 288 1 G 3 41° 98% - - 41° 41.5° 32.6° - - -
2/27 6:20am 178 2 G 4 41° 98% - - 40° 41.5° 32.6° - - -
2/27 6:10am 128 4 G 5 40° 98% - - 40° 40.8° 32.6° - - -
2/27 6:00am 148 3 G 5 40° 98% - - 39° 40.4° 32.6° - - -
2/27 5:50am 122 3 G 5 40° 98% - - 39° 40.3° 32.6° - - -
2/27 5:40am 120 2 G 3 39° 98% - - 39° 39.8° 32.6° - - -
2/27 5:30am 213 2 G 3 39° 98% - - 38° 39.6° 32.6° - - -
2/27 5:20am 200 2 G 4 39° 97% - - 38° 39.4° 32.6° - - -
2/27 5:10am 222 2 G 4 39° 97% - - 38° 39.2° 32.6° - - -
2/27 5:00am 238 3 G 6 39° 97% - - 38° 39.2° 32.6° - - -
2/27 4:50am 318 2 G 4 38° 96% - - 37° 39.2° 32.6° - - -
2/27 4:40am 37 1 G 2 38° 96% - - 37° 39.2° 32.6° - - -
2/27 4:30am 353 1 G 2 38° 96% - - 37° 39.2° 32.6° - - -
2/27 4:20am 72 2 G 4 38° 96% - - 37° 39.2° 32.6° - - -
2/27 4:10am 63 2 G 4 38° 96% - - 37° 39.2° 32.6° - - -
2/27 4:00am 63 1 G 2 38° 95% - - 37° 39.2° 32.6° - - -
2/27 3:50am 160 2 G 4 38° 94% - - 36° 39.2° 32.6° - - -
2/27 3:40am 243 2 G 4 38° 93% - - 36° 39.2° 32.6° - - -
2/27 3:30am 221 3 G 5 39° 92% - - 36° 39.2° 32.6° - - -
2/27 3:20am 45 4 G 5 39° 89% - - 36° 39.1° 32.6° - - -
2/27 3:10am 68 2 G 4 38° 87% - - 35° 38.8° 32.6° - - -
2/27 3:00am 82 2 G 4 38° 86% - - 34° 38.7° 32.6° - - -
2/27 2:50am 173 1 G 2 38° 85% - - 34° 38.7° 32.6° - - -
2/27 2:40am 193 1 G 1 38° 86% - - 34° 38.7° 32.6° - - -
2/27 2:30am 107 1 G 3 38° 84% - - 34° 38.7° 32.6° - - -
2/27 2:20am 46 3 G 4 38° 84% - - 33° 38.5° 32.6° - - -
2/27 2:10am 78 3 G 4 38° 84% - - 33° 38.2° 32.6° - - -
2/27 2:00am 130 3 G 6 37° 84% - - 33° 37.9° 32.6° - - -
2/27 1:50am 171 2 G 4 37° 84% - - 32° 37.1° 32.6° - - -
2/27 1:40am 190 1 G 3 36° 85% - - 32° 36.6° 32.6° - - -
2/27 1:30am 204 3 G 4 35° 85% - - 31° 36.2° 32.6° - - -
2/27 1:20am 298 3 G 5 35° 84% - - 31° 36.2° 32.6° - - -
2/27 1:10am 284 3 G 5 35° 86% - - 32° 36.2° 32.6° - - -
2/27 1:00am 203 1 G 2 33° 91% - - 31° 35.4° 32.6° - - -
2/27 12:50am 105 2 G 4 33° 90% - - 31° 35.4° 32.6° - - -
2/27 12:40am 101 3 G 5 34° 89% - - 31° 35.4° 32.8° - - -
2/27 12:30am 68 1 G 2 34° 92% - - 31° 34.3° 32.8° - - -
2/27 12:20am 118 1 G 5 33° 91% - - 31° 34.3° 32.8° - - -
2/27 12:10am 165 2 G 4 34° 91% - - 31° 34.3° 33° - - -
2/27 12:00am 25 1 G 2 34° 91% - - 31° 48.9° 32.7° - - -
2/26 11:50pm 351 1 G 3 33° 90% - - 31° 48.9° 32.7° - - -
2/26 11:40pm 115 2 G 4 34° 91% - - 31° 48.9° 33° - - -
2/26 11:30pm 185 1 G 3 34° 90% - - 31° 48.9° 33.3° - - -
2/26 11:20pm 228 2 G 5 34° 88% - - 31° 48.9° 33.7° - - -
2/26 11:10pm 153 1 G 2 35° 85% - - 31° 48.9° 34.4° - - -
2/26 11:00pm 146 2 G 4 36° 82% - - 31° 48.9° 35.5° - - -
2/26 10:50pm 114 4 G 7 37° 79% - - 31° 48.9° 35.9° - - -
2/26 10:40pm 83 5 G 7 38° 78% - - 31° 48.9° 36.2° - - -
2/26 10:30pm 61 4 G 5 37° 84% - - 32° 48.9° 36.2° - - -
2/26 10:20pm 144 2 G 4 37° 87% - - 34° 48.9° 36.6° - - -
2/26 10:10pm 120 1 G 3 38° 89% - - 35° 48.9° 37.2° - - -
2/26 10:00pm 101 3 G 4 39° 88% - - 35° 48.9° 37.4° - - -
2/26 9:50pm 159 1 G 2 40° 89% - - 37° 48.9° 39.1° - - -
2/26 9:40pm 177 2 G 3 40° 87% - - 36° 48.9° 39.1° - - -
2/26 9:30pm 276 1 G 3 41° 82% - - 36° 48.9° 39.1° - - -
2/26 9:20pm 249 2 G 4 41° 87% - - 37° 48.9° 39.1° - - -
2/26 9:10pm 232 4 G 5 41° 88% - - 37° 48.9° 39.1° - - -
2/26 9:00pm 242 2 G 4 40° 90% - - 37° 48.9° 39.1° - - -
2/26 8:50pm 312 2 G 5 41° 90% - - 38° 48.9° 39.1° - - -
2/26 8:40pm 330 5 G 9 41° 90% - - 38° 48.9° 39.1° - - -
2/26 8:30pm 331 5 G 7 41° 92% - - 39° 48.9° 39.1° - - -
2/26 8:20pm 306 4 G 6 41° 92% - - 39° 48.9° 39.1° - - -
2/26 8:10pm 325 4 G 8 41° 91% - - 39° 48.9° 39.1° - - -
2/26 8:00pm 326 3 G 7 42° 92% - - 39° 48.9° 39.1° - - -
2/26 7:50pm 335 1 G 3 41° 92% - - 39° 48.9° 39.1° - - -
2/26 7:40pm 285 1 G 3 42° 92% - - 40° 48.9° 39.1° - - -
2/26 7:30pm 277 2 G 3 42° 93% - - 40° 48.9° 39.1° - - -
2/26 7:20pm 216 1 G 3 42° 93% - - 40° 48.9° 39.1° - - -
2/26 7:10pm 252 5 G 8 42° 92% - - 40° 48.9° 39.1° - - -
2/26 7:00pm 273 4 G 7 42° 90% - - 39° 48.9° 39.1° - - -
2/26 6:50pm 278 5 G 8 43° 87% - - 39° 48.9° 39.1° - - -
2/26 6:40pm 189 3 G 7 44° 81% - - 38° 48.9° 39.1° - - -
2/26 6:30pm 197 2 G 4 43° 81% - - 38° 48.9° 39.1° - - -
2/26 6:20pm 282 1 G 3 44° 79% - - 38° 48.9° 39.1° - - -
2/26 6:10pm 313 4 G 6 45° 73% - - 37° 48.9° 39.1° - - -
2/26 6:00pm 275 3 G 9 46° 65% - - 35° 48.9° 39.1° - - -
2/26 5:50pm 231 4 G 9 46° 65% - - 35° 48.9° 39.1° - - -
2/26 5:40pm 253 4 G 7 46° 70% - - 37° 48.9° 39.1° - - -
2/26 5:30pm 330 2 G 5 47° 67% - - 36° 48.9° 39.1° - - -
2/26 5:20pm 206 2 G 3 47° 67% - - 36° 48.9° 39.1° - - -
2/26 5:10pm 178 3 G 10 47° 66% - - 36° 48.9° 39.1° - - -
2/26 5:00pm 174 6 G 11 47° 67% - - 36° 48.9° 39.1° - - -